Time;durP1;ratioP1;P1;durP2;ratioP2;P2;SDS_P1;SDS_P2;PMS_P1;PMS_P2;Temp;Humidity;BMP_temperature;BMP_pressure;BME280_temperature;BME280_humidity;BME280_pressure;Samples;Min_cycle;Max_cycle;Signal;HPM_P1;HPM_P2
2022/08/04 00:01:28;;;;;;;4.00;3.63;;;;;;;;;;5086780;28;20183;-57
2022/08/04 00:03:57;;;;;;;5.60;3.83;;;;;;;;;;5092638;28;20582;-55
2022/08/04 00:06:34;;;;;;;6.63;4.10;;;;;;;;;;5067123;28;20199;-59
2022/08/04 00:09:07;;;;;;;4.40;3.93;;;;;;;;;;5096492;28;20175;-55
2022/08/04 00:11:33;;;;;;;4.10;3.70;;;;;;;;;;5088105;28;20255;-56
2022/08/04 00:14:09;;;;;;;6.63;4.13;;;;;;;;;;5096942;28;20594;-57
2022/08/04 00:16:36;;;;;;;4.37;3.60;;;;;;;;;;5070482;28;20182;-56
2022/08/04 00:19:12;;;;;;;3.77;3.47;;;;;;;;;;5095722;28;20190;-55
2022/08/04 00:21:39;;;;;;;4.37;3.90;;;;;;;;;;5083224;28;20192;-56
2022/08/04 00:24:05;;;;;;;4.20;3.80;;;;;;;;;;5074894;28;20261;-56
2022/08/04 00:26:33;;;;;;;3.53;3.23;;;;;;;;;;5088194;28;20557;-57
2022/08/04 00:29:00;;;;;;;3.70;3.40;;;;;;;;;;5092721;28;20236;-55
2022/08/04 00:31:27;;;;;;;3.30;3.10;;;;;;;;;;5072256;27;20226;-57
2022/08/04 00:33:54;;;;;;;6.87;4.23;;;;;;;;;;5079777;28;20177;-56
2022/08/04 00:36:20;;;;;;;3.53;3.23;;;;;;;;;;5092205;28;20177;-56
2022/08/04 00:38:47;;;;;;;4.17;3.60;;;;;;;;;;5094906;28;20178;-56
2022/08/04 00:41:26;;;;;;;4.37;3.97;;;;;;;;;;5090305;28;20205;-55
2022/08/04 00:44:18;;;;;;;3.60;3.30;;;;;;;;;;5089855;28;20610;-55
2022/08/04 00:46:53;;;;;;;4.40;3.90;;;;;;;;;;5048760;28;20782;-56
2022/08/04 00:49:38;;;;;;;3.47;3.13;;;;;;;;;;5093078;28;20179;-55
2022/08/04 00:52:23;;;;;;;5.43;3.43;;;;;;;;;;5089170;28;20181;-55
2022/08/04 00:55:07;;;;;;;4.97;3.00;;;;;;;;;;5086617;28;20172;-55
2022/08/04 00:57:52;;;;;;;3.80;3.50;;;;;;;;;;5081535;28;20170;-56
2022/08/04 01:00:18;;;;;;;4.03;3.60;;;;;;;;;;5071199;28;20182;-55
2022/08/04 01:02:51;;;;;;;3.57;3.27;;;;;;;;;;5082149;28;20175;-54
2022/08/04 01:05:21;;;;;;;3.97;3.50;;;;;;;;;;5069314;28;20346;-56
2022/08/04 01:08:06;;;;;;;4.37;3.20;;;;;;;;;;5065406;28;20641;-55
2022/08/04 01:10:39;;;;;;;4.05;3.67;;;;;;;;;;5089078;28;20181;-55
2022/08/04 01:13:11;;;;;;;4.10;3.70;;;;;;;;;;5069251;28;20179;-55
2022/08/04 01:15:59;;;;;;;4.30;3.77;;;;;;;;;;5091071;28;20187;-55
2022/08/04 01:18:48;;;;;;;3.85;3.40;;;;;;;;;;5077619;28;20580;-55
2022/08/04 01:21:22;;;;;;;3.70;3.40;;;;;;;;;;5086481;28;20196;-56
2022/08/04 01:23:52;;;;;;;3.45;2.90;;;;;;;;;;5075257;28;20207;-55
2022/08/04 01:26:37;;;;;;;4.15;3.72;;;;;;;;;;5091498;28;20709;-55
2022/08/04 01:29:11;;;;;;;4.03;3.70;;;;;;;;;;5088652;28;20176;-56
2022/08/04 01:31:39;;;;;;;3.67;3.30;;;;;;;;;;5082801;28;20232;-55
2022/08/04 01:34:06;;;;;;;4.05;3.72;;;;;;;;;;5073609;28;20433;-54
2022/08/04 01:36:35;;;;;;;3.37;3.07;;;;;;;;;;5085248;28;20642;-56
2022/08/04 01:41:57;;;;;;;5.67;3.43;;;;;;;;;;5067711;28;20184;-55
2022/08/04 01:44:25;;;;;;;3.40;3.10;;;;;;;;;;5096564;28;20178;-55
2022/08/04 01:46:52;;;;;;;4.30;3.07;;;;;;;;;;5092548;28;20530;-58
2022/08/04 01:49:21;;;;;;;5.23;3.10;;;;;;;;;;5081824;28;20674;-56
2022/08/04 01:51:51;;;;;;;4.63;3.50;;;;;;;;;;5077916;28;20183;-55
2022/08/04 01:54:18;;;;;;;3.50;3.07;;;;;;;;;;5092356;28;20177;-57
2022/08/04 01:56:45;;;;;;;4.37;3.37;;;;;;;;;;5090348;28;20224;-54
2022/08/04 01:59:13;;;;;;;4.30;3.90;;;;;;;;;;5071565;28;20179;-57
2022/08/04 02:01:39;;;;;;;3.20;2.90;;;;;;;;;;5082178;28;20257;-56
2022/08/04 02:04:05;;;;;;;4.10;3.27;;;;;;;;;;5090648;28;20173;-56
2022/08/04 02:06:40;;;;;;;3.93;3.60;;;;;;;;;;5082910;28;20189;-55
2022/08/04 02:09:23;;;;;;;3.87;3.20;;;;;;;;;;5083883;28;20647;-55
2022/08/04 02:11:58;;;;;;;5.07;3.47;;;;;;;;;;5083035;28;20171;-56
2022/08/04 02:14:43;;;;;;;3.40;3.10;;;;;;;;;;5071718;28;20185;-55
2022/08/04 02:17:10;;;;;;;3.60;3.30;;;;;;;;;;5068790;28;20260;-55
2022/08/04 02:19:44;;;;;;;3.70;3.30;;;;;;;;;;5088207;28;20175;-55
2022/08/04 02:22:14;;;;;;;3.63;3.30;;;;;;;;;;5086952;28;20226;-55
2022/08/04 02:24:43;;;;;;;3.53;3.10;;;;;;;;;;5093106;28;20249;-56
2022/08/04 02:27:10;;;;;;;3.30;3.10;;;;;;;;;;5088654;28;20208;-56
2022/08/04 02:29:45;;;;;;;3.37;2.77;;;;;;;;;;5091286;28;20179;-56
2022/08/04 02:32:18;;;;;;;5.13;3.53;;;;;;;;;;5087903;27;20237;-56
2022/08/04 02:34:44;;;;;;;3.70;2.87;;;;;;;;;;5094657;28;20196;-55
2022/08/04 02:37:10;;;;;;;3.27;3.03;;;;;;;;;;5075691;28;20178;-56
2022/08/04 02:39:37;;;;;;;3.90;3.60;;;;;;;;;;5058356;28;20655;-55
2022/08/04 02:42:06;;;;;;;3.60;3.20;;;;;;;;;;5076512;28;21891;-56
2022/08/04 02:44:32;;;;;;;3.93;3.53;;;;;;;;;;5069981;28;20179;-54
2022/08/04 02:47:00;;;;;;;4.40;3.40;;;;;;;;;;5089971;28;20185;-55
2022/08/04 02:49:28;;;;;;;3.80;3.50;;;;;;;;;;5078822;28;20181;-54
2022/08/04 02:51:56;;;;;;;3.50;3.20;;;;;;;;;;5087280;28;20269;-55
2022/08/04 02:54:28;;;;;;;4.67;3.40;;;;;;;;;;5086079;28;20182;-54
2022/08/04 02:56:55;;;;;;;4.17;3.40;;;;;;;;;;5088448;28;20179;-56
2022/08/04 02:59:24;;;;;;;3.97;3.57;;;;;;;;;;5097772;28;20223;-54
2022/08/04 03:01:51;;;;;;;3.50;3.20;;;;;;;;;;5087366;28;20440;-55
2022/08/04 03:04:17;;;;;;;3.93;3.23;;;;;;;;;;5058722;28;20185;-57
2022/08/04 03:06:43;;;;;;;5.47;3.70;;;;;;;;;;5087762;28;20182;-55
2022/08/04 03:09:23;;;;;;;3.37;3.00;;;;;;;;;;5090413;28;20196;-57
2022/08/04 03:12:08;;;;;;;3.80;3.50;;;;;;;;;;5097049;28;20246;-55
2022/08/04 03:14:46;;;;;;;3.90;3.20;;;;;;;;;;5088663;28;20180;-56
2022/08/04 03:17:33;;;;;;;13.00;12.33;;;;;;;;;;5078628;28;20521;-56
2022/08/04 03:20:09;;;;;;;4.13;3.73;;;;;;;;;;5099593;28;20205;-57
2022/08/04 03:22:59;;;;;;;3.27;3.00;;;;;;;;;;5071551;28;20702;-55
2022/08/04 03:25:37;;;;;;;4.83;3.37;;;;;;;;;;5083103;28;20221;-55
2022/08/04 03:28:12;;;;;;;4.70;4.30;;;;;;;;;;5083810;28;20193;-56
2022/08/04 03:30:53;;;;;;;4.33;4.03;;;;;;;;;;5098494;28;20205;-59
2022/08/04 03:33:32;;;;;;;10.60;9.97;;;;;;;;;;5088180;27;20696;-56
2022/08/04 03:36:22;;;;;;;4.40;3.27;;;;;;;;;;5094690;28;20184;-55
2022/08/04 03:39:07;;;;;;;5.60;3.50;;;;;;;;;;5084884;28;20186;-55
2022/08/04 03:41:33;;;;;;;3.87;3.57;;;;;;;;;;5082202;28;20542;-55
2022/08/04 03:44:11;;;;;;;3.60;3.17;;;;;;;;;;5085815;28;20179;-55
2022/08/04 03:46:50;;;;;;;3.57;3.27;;;;;;;;;;5083830;28;20746;-55
2022/08/04 03:49:40;;;;;;;3.50;3.30;;;;;;;;;;5093253;28;20649;-55
2022/08/04 03:55:21;;;;;;;4.00;3.70;;;;;;;;;;5085100;28;20232;-55
2022/08/04 03:58:14;;;;;;;4.17;3.90;;;;;;;;;;5088959;28;20674;-54
2022/08/04 04:00:46;;;;;;;3.53;3.17;;;;;;;;;;5035724;28;20707;-55
2022/08/04 04:03:28;;;;;;;9.27;8.77;;;;;;;;;;5087294;28;20248;-54
2022/08/04 04:06:21;;;;;;;3.53;2.87;;;;;;;;;;5079020;28;20203;-54
2022/08/04 04:09:03;;;;;;;3.73;3.37;;;;;;;;;;5082893;28;20174;-54
2022/08/04 04:11:48;;;;;;;5.37;5.03;;;;;;;;;;5097615;28;20175;-54
2022/08/04 04:14:26;;;;;;;4.77;3.63;;;;;;;;;;5088828;28;20178;-56
2022/08/04 04:17:08;;;;;;;3.50;3.20;;;;;;;;;;5070380;28;20513;-55
2022/08/04 04:19:34;;;;;;;3.63;3.33;;;;;;;;;;5085885;28;20205;-53
2022/08/04 04:22:08;;;;;;;3.90;3.40;;;;;;;;;;5079046;28;20175;-55
2022/08/04 04:24:46;;;;;;;3.50;3.20;;;;;;;;;;5093145;28;20427;-55
2022/08/04 04:27:21;;;;;;;8.77;8.17;;;;;;;;;;5096491;28;20261;-54
2022/08/04 04:29:50;;;;;;;7.30;6.47;;;;;;;;;;5092404;28;20190;-54
2022/08/04 04:32:43;;;;;;;3.63;3.00;;;;;;;;;;5093119;27;20665;-55
2022/08/04 04:35:10;;;;;;;7.07;3.87;;;;;;;;;;5076912;28;20200;-55
2022/08/04 04:37:36;;;;;;;3.67;3.37;;;;;;;;;;5090299;28;20175;-55
2022/08/04 04:40:03;;;;;;;3.57;3.27;;;;;;;;;;5088088;28;20178;-54
2022/08/04 04:42:29;;;;;;;3.97;3.67;;;;;;;;;;5084088;28;20175;-56
2022/08/04 04:45:04;;;;;;;4.53;3.70;;;;;;;;;;5098674;28;20189;-55
2022/08/04 04:47:33;;;;;;;4.27;3.10;;;;;;;;;;5095418;28;20735;-55
2022/08/04 04:50:02;;;;;;;6.80;3.67;;;;;;;;;;5081392;28;20819;-55
2022/08/04 04:52:40;;;;;;;6.83;6.43;;;;;;;;;;5094760;28;20205;-55
2022/08/04 04:55:13;;;;;;;4.50;4.10;;;;;;;;;;5095090;28;20183;-54
2022/08/04 04:57:41;;;;;;;3.17;2.97;;;;;;;;;;5083172;28;20179;-56
2022/08/04 05:00:09;;;;;;;6.17;5.77;;;;;;;;;;5103595;28;20635;-55
2022/08/04 05:02:35;;;;;;;3.87;3.57;;;;;;;;;;5069500;28;20546;-54
2022/08/04 05:05:20;;;;;;;5.13;3.50;;;;;;;;;;5084536;28;20200;-55
2022/08/04 05:08:15;;;;;;;3.23;2.93;;;;;;;;;;5082520;28;20175;-55
2022/08/04 05:10:50;;;;;;;3.87;3.57;;;;;;;;;;5078818;28;20642;-55
2022/08/04 05:13:35;;;;;;;5.57;3.47;;;;;;;;;;5082186;28;20302;-55
2022/08/04 05:16:05;;;;;;;4.17;3.83;;;;;;;;;;5082310;28;20176;-57
2022/08/04 05:18:32;;;;;;;5.00;4.70;;;;;;;;;;5086130;28;20286;-55
2022/08/04 05:21:07;;;;;;;3.87;3.37;;;;;;;;;;5088453;28;20793;-54
2022/08/04 05:23:37;;;;;;;3.53;3.03;;;;;;;;;;5062927;28;20191;-55
2022/08/04 05:26:12;;;;;;;4.27;3.20;;;;;;;;;;5093855;28;20317;-55
2022/08/04 05:29:05;;;;;;;4.07;3.43;;;;;;;;;;5086021;28;20181;-55
2022/08/04 05:31:47;;;;;;;5.30;3.77;;;;;;;;;;5093082;27;20231;-56
2022/08/04 05:34:20;;;;;;;3.70;3.40;;;;;;;;;;5085699;28;20551;-55
2022/08/04 05:36:48;;;;;;;4.77;4.10;;;;;;;;;;5065308;28;20184;-55
2022/08/04 05:39:43;;;;;;;3.50;3.17;;;;;;;;;;5081460;28;20183;-55
2022/08/04 05:42:11;;;;;;;4.83;3.00;;;;;;;;;;5068147;28;20196;-54
2022/08/04 05:44:37;;;;;;;3.17;2.97;;;;;;;;;;5073363;28;20222;-55
2022/08/04 05:47:04;;;;;;;6.37;4.63;;;;;;;;;;5073927;28;20645;-55
2022/08/04 05:49:32;;;;;;;4.13;3.57;;;;;;;;;;5084389;28;20662;-55
2022/08/04 05:52:00;;;;;;;5.47;4.03;;;;;;;;;;5087977;28;20184;-54
2022/08/04 05:54:27;;;;;;;3.80;2.83;;;;;;;;;;5077600;28;20183;-54
2022/08/04 05:56:54;;;;;;;3.23;3.03;;;;;;;;;;5085774;28;20176;-55
2022/08/04 05:59:24;;;;;;;3.83;3.50;;;;;;;;;;5081096;28;20184;-55
2022/08/04 06:01:51;;;;;;;3.70;3.00;;;;;;;;;;5086449;28;20481;-54
2022/08/04 06:04:18;;;;;;;5.87;3.60;;;;;;;;;;5090334;28;20180;-57
2022/08/04 06:06:44;;;;;;;4.33;3.93;;;;;;;;;;5093553;28;20553;-55
2022/08/04 06:09:10;;;;;;;4.17;3.83;;;;;;;;;;5095639;28;20214;-56
2022/08/04 06:11:38;;;;;;;4.20;3.77;;;;;;;;;;5081529;28;20181;-56
2022/08/04 06:14:07;;;;;;;3.67;3.33;;;;;;;;;;5074356;28;20574;-56
2022/08/04 06:16:39;;;;;;;6.00;4.13;;;;;;;;;;5082320;28;20733;-56
2022/08/04 06:19:09;;;;;;;4.43;3.93;;;;;;;;;;5081705;28;20204;-55
2022/08/04 06:21:37;;;;;;;5.63;5.13;;;;;;;;;;5080408;28;20633;-56
2022/08/04 06:24:04;;;;;;;5.63;4.80;;;;;;;;;;5073851;28;20198;-56
2022/08/04 06:26:32;;;;;;;6.47;4.10;;;;;;;;;;5059557;28;20194;-56
2022/08/04 06:28:59;;;;;;;3.63;3.33;;;;;;;;;;5080369;28;20279;-56
2022/08/04 06:31:42;;;;;;;3.80;3.60;;;;;;;;;;5085171;28;20182;-54
2022/08/04 06:34:08;;;;;;;7.90;3.73;;;;;;;;;;5057119;28;20711;-56
2022/08/04 06:36:36;;;;;;;5.47;4.00;;;;;;;;;;5077706;28;20190;-57
2022/08/04 06:39:06;;;;;;;6.53;4.27;;;;;;;;;;5087417;28;20179;-57
2022/08/04 06:41:33;;;;;;;7.23;4.77;;;;;;;;;;5072422;28;20638;-55
2022/08/04 06:43:59;;;;;;;3.90;3.60;;;;;;;;;;5083363;28;20183;-54
2022/08/04 06:46:26;;;;;;;16.47;5.00;;;;;;;;;;5072990;28;20206;-54
2022/08/04 06:48:53;;;;;;;10.70;4.27;;;;;;;;;;5077884;28;20270;-55
2022/08/04 06:51:20;;;;;;;7.00;3.90;;;;;;;;;;5070516;28;20183;-55
2022/08/04 06:53:47;;;;;;;5.83;4.20;;;;;;;;;;5061035;28;20183;-56
2022/08/04 06:56:14;;;;;;;6.73;4.40;;;;;;;;;;5086471;28;20187;-55
2022/08/04 06:58:41;;;;;;;5.40;4.90;;;;;;;;;;5089218;28;20573;-55
2022/08/04 07:01:07;;;;;;;5.10;3.90;;;;;;;;;;5093935;28;20181;-54
2022/08/04 07:03:34;;;;;;;6.93;4.80;;;;;;;;;;5079173;28;20196;-56
2022/08/04 07:06:00;;;;;;;5.07;4.57;;;;;;;;;;5082281;28;21657;-57
2022/08/04 07:08:29;;;;;;;5.30;4.63;;;;;;;;;;5066528;28;20213;-57
2022/08/04 07:10:57;;;;;;;4.70;4.10;;;;;;;;;;5074509;28;20847;-57
2022/08/04 07:13:23;;;;;;;5.27;4.73;;;;;;;;;;5068977;28;20589;-58
2022/08/04 07:15:49;;;;;;;4.50;4.10;;;;;;;;;;5085771;28;20610;-59
2022/08/04 07:18:15;;;;;;;6.40;4.63;;;;;;;;;;5086785;28;20181;-58
2022/08/04 07:20:42;;;;;;;5.63;5.13;;;;;;;;;;5078486;28;20794;-56
2022/08/04 07:23:10;;;;;;;6.17;4.47;;;;;;;;;;5069602;28;20183;-54
2022/08/04 07:25:37;;;;;;;24.40;8.13;;;;;;;;;;5082460;28;20199;-54
2022/08/04 07:28:03;;;;;;;34.57;12.20;;;;;;;;;;5083399;28;20639;-54
2022/08/04 07:30:30;;;;;;;47.57;11.80;;;;;;;;;;5090443;28;20175;-55
2022/08/04 07:32:56;;;;;;;52.40;13.03;;;;;;;;;;5083141;27;20262;-54
2022/08/04 07:35:23;;;;;;;104.93;15.68;;;;;;;;;;5064263;28;20184;-56
2022/08/04 07:37:49;;;;;;;88.97;16.13;;;;;;;;;;5085715;28;20179;-55
2022/08/04 07:40:15;;;;;;;123.87;15.97;;;;;;;;;;5095126;28;20526;-55
2022/08/04 07:42:42;;;;;;;214.50;25.40;;;;;;;;;;5096019;28;20199;-57
2022/08/04 07:45:09;;;;;;;158.05;20.98;;;;;;;;;;5086187;28;20571;-56
2022/08/04 07:47:36;;;;;;;189.95;20.52;;;;;;;;;;5086888;28;20179;-57
2022/08/04 07:50:02;;;;;;;84.53;13.67;;;;;;;;;;5090904;28;20203;-54
2022/08/04 07:52:29;;;;;;;59.17;11.55;;;;;;;;;;5092276;28;20309;-56
2022/08/04 07:54:55;;;;;;;83.25;12.95;;;;;;;;;;5090723;28;20189;-55
2022/08/04 07:57:21;;;;;;;221.15;40.40;;;;;;;;;;5088394;28;20227;-57
2022/08/04 07:59:47;;;;;;;240.82;64.43;;;;;;;;;;5085245;28;20426;-56
2022/08/04 08:02:15;;;;;;;219.50;50.47;;;;;;;;;;5091971;28;20189;-55
2022/08/04 08:04:42;;;;;;;246.43;51.17;;;;;;;;;;5077687;28;20183;-55
2022/08/04 08:07:08;;;;;;;136.18;39.28;;;;;;;;;;5089254;28;20181;-54
2022/08/04 08:09:34;;;;;;;149.70;40.10;;;;;;;;;;5078193;28;20183;-57
2022/08/04 08:12:01;;;;;;;95.25;28.20;;;;;;;;;;5089797;28;20188;-55
2022/08/04 08:14:29;;;;;;;83.97;26.85;;;;;;;;;;5088191;28;20225;-55
2022/08/04 08:16:55;;;;;;;32.00;13.80;;;;;;;;;;5093928;28;20219;-56
2022/08/04 08:19:21;;;;;;;568.42;64.18;;;;;;;;;;5085238;28;20177;-56
2022/08/04 08:21:48;;;;;;;450.90;57.38;;;;;;;;;;5086621;28;20175;-56
2022/08/04 08:24:15;;;;;;;479.15;54.05;;;;;;;;;;5084335;28;20184;-58
2022/08/04 08:26:41;;;;;;;656.28;80.97;;;;;;;;;;5086568;28;20660;-56
2022/08/04 08:29:08;;;;;;;633.55;81.25;;;;;;;;;;5082817;28;20180;-55
2022/08/04 08:31:34;;;;;;;1178.55;128.93;;;;;;;;;;5092466;28;20182;-55
2022/08/04 08:34:00;;;;;;;1112.40;124.93;;;;;;;;;;5067308;28;20220;-56
2022/08/04 08:36:34;;;;;;;1254.50;140.85;;;;;;;;;;5094192;28;20181;-54
2022/08/04 08:39:00;;;;;;;1864.20;218.50;;;;;;;;;;5060103;28;20656;-55
2022/08/04 08:41:32;;;;;;;102.30;16.02;;;;;;;;;;5088723;28;20184;-56
2022/08/04 08:44:01;;;;;;;48.00;10.27;;;;;;;;;;5089492;28;20568;-54
2022/08/04 08:46:37;;;;;;;21.80;6.10;;;;;;;;;;5106480;28;20213;-56
2022/08/04 08:49:06;;;;;;;10.95;5.43;;;;;;;;;;5084069;28;20181;-59
2022/08/04 08:51:38;;;;;;;8.35;4.60;;;;;;;;;;5089126;28;20181;-55
2022/08/04 08:54:15;;;;;;;4.93;4.07;;;;;;;;;;5083911;28;20185;-55
2022/08/04 08:56:47;;;;;;;5.38;4.20;;;;;;;;;;5101059;28;20185;-55
2022/08/04 08:59:13;;;;;;;4.82;4.20;;;;;;;;;;5088654;28;20171;-57
2022/08/04 09:01:54;;;;;;;6.65;3.58;;;;;;;;;;5083184;28;20194;-55
2022/08/04 09:04:39;;;;;;;5.32;3.33;;;;;;;;;;5084077;28;20545;-57
2022/08/04 09:07:10;;;;;;;6.03;4.30;;;;;;;;;;5096464;28;20193;-57
2022/08/04 09:09:55;;;;;;;14.13;4.53;;;;;;;;;;5082901;28;20200;-56
2022/08/04 09:12:27;;;;;;;4.40;4.00;;;;;;;;;;5070193;28;20597;-56
2022/08/04 09:15:04;;;;;;;4.75;4.10;;;;;;;;;;5091983;28;20668;-55
2022/08/04 09:17:41;;;;;;;5.05;4.07;;;;;;;;;;5087276;28;20261;-54
2022/08/04 09:20:15;;;;;;;4.90;4.40;;;;;;;;;;5089320;28;20214;-56
2022/08/04 09:22:44;;;;;;;4.03;3.67;;;;;;;;;;5096805;28;20179;-57
2022/08/04 09:25:24;;;;;;;6.90;4.40;;;;;;;;;;5067117;28;20256;-57
2022/08/04 09:27:51;;;;;;;4.38;4.07;;;;;;;;;;5085831;28;20190;-56
2022/08/04 09:30:19;;;;;;;5.95;4.10;;;;;;;;;;5064245;28;20549;-57
2022/08/04 09:33:05;;;;;;;4.65;4.10;;;;;;;;;;5077446;28;20645;-58
2022/08/04 09:35:46;;;;;;;5.38;4.07;;;;;;;;;;5078326;28;20269;-58
2022/08/04 09:38:12;;;;;;;5.47;4.38;;;;;;;;;;5087208;28;20635;-62
2022/08/04 09:40:57;;;;;;;4.90;4.05;;;;;;;;;;5066115;28;20222;-57
2022/08/04 09:43:37;;;;;;;4.13;3.83;;;;;;;;;;5092957;28;20183;-57
2022/08/04 09:46:09;;;;;;;7.22;3.15;;;;;;;;;;5065964;28;20256;-57
2022/08/04 09:48:54;;;;;;;4.72;3.83;;;;;;;;;;5074094;28;20273;-57
2022/08/04 09:51:25;;;;;;;5.20;3.72;;;;;;;;;;5069854;28;20206;-54
2022/08/04 09:54:02;;;;;;;5.22;3.42;;;;;;;;;;5096150;28;20220;-56
2022/08/04 09:56:34;;;;;;;7.95;3.58;;;;;;;;;;5092683;28;20710;-57
2022/08/04 09:59:15;;;;;;;10.05;3.80;;;;;;;;;;5081498;28;20735;-56
2022/08/04 10:01:42;;;;;;;8.40;3.92;;;;;;;;;;5094165;28;20179;-56
2022/08/04 10:04:11;;;;;;;8.35;4.07;;;;;;;;;;5080506;28;20229;-58
2022/08/04 10:06:40;;;;;;;7.60;5.78;;;;;;;;;;5076181;28;20207;-56
2022/08/04 10:09:25;;;;;;;7.80;5.00;;;;;;;;;;5086843;28;20206;-55
2022/08/04 10:11:55;;;;;;;7.30;5.25;;;;;;;;;;5071488;28;21128;-55
2022/08/04 10:14:30;;;;;;;13.93;5.85;;;;;;;;;;5082373;28;21099;-55
2022/08/04 10:17:09;;;;;;;11.32;5.32;;;;;;;;;;5091058;28;20193;-59
2022/08/04 10:19:38;;;;;;;6.38;3.90;;;;;;;;;;5087280;28;20205;-55
2022/08/04 10:22:26;;;;;;;7.47;4.40;;;;;;;;;;5081693;28;20210;-56
2022/08/04 10:24:55;;;;;;;6.18;4.72;;;;;;;;;;5090182;28;20710;-56
2022/08/04 10:27:37;;;;;;;6.25;4.20;;;;;;;;;;5072648;28;20178;-57
2022/08/04 10:30:12;;;;;;;8.02;4.30;;;;;;;;;;5089198;28;20249;-54
2022/08/04 10:32:40;;;;;;;6.88;4.30;;;;;;;;;;5090979;28;20622;-55
2022/08/04 10:35:14;;;;;;;7.55;4.07;;;;;;;;;;5056943;28;20210;-57
2022/08/04 10:37:43;;;;;;;12.82;4.47;;;;;;;;;;5046889;28;20315;-56
2022/08/04 10:43:09;;;;;;;6.07;4.15;;;;;;;;;;5054026;28;20641;-57
2022/08/04 10:45:46;;;;;;;5.38;3.78;;;;;;;;;;5056952;28;20204;-58
2022/08/04 10:48:18;;;;;;;5.10;3.83;;;;;;;;;;5066172;28;20172;-58
2022/08/04 10:50:50;;;;;;;5.50;3.35;;;;;;;;;;5041742;28;20675;-55
2022/08/04 10:53:24;;;;;;;4.38;3.63;;;;;;;;;;5044125;28;20183;-56
2022/08/04 10:56:06;;;;;;;8.48;3.63;;;;;;;;;;5064299;28;20244;-58
2022/08/04 10:58:36;;;;;;;4.60;3.90;;;;;;;;;;5062211;28;20689;-57
2022/08/04 11:01:05;;;;;;;5.57;3.30;;;;;;;;;;5061858;28;20591;-58
2022/08/04 11:03:41;;;;;;;5.82;3.33;;;;;;;;;;5066338;28;20582;-56
2022/08/04 11:06:08;;;;;;;5.25;3.35;;;;;;;;;;5039249;28;20632;-55
2022/08/04 11:08:58;;;;;;;4.65;3.63;;;;;;;;;;5036485;28;20643;-54
2022/08/04 11:11:30;;;;;;;4.57;3.38;;;;;;;;;;5062029;28;20535;-55
2022/08/04 11:14:19;;;;;;;6.55;3.30;;;;;;;;;;5054969;28;20230;-58
2022/08/04 11:16:51;;;;;;;5.93;3.85;;;;;;;;;;5043944;28;20196;-57
2022/08/04 11:19:36;;;;;;;3.80;3.38;;;;;;;;;;5059577;28;20192;-57
2022/08/04 11:22:14;;;;;;;6.68;3.60;;;;;;;;;;5075908;28;20260;-56
2022/08/04 11:24:52;;;;;;;11.10;3.90;;;;;;;;;;5053934;28;20234;-56
2022/08/04 11:27:38;;;;;;;5.70;3.33;;;;;;;;;;5072557;28;20665;-55
2022/08/04 11:30:06;;;;;;;9.27;3.90;;;;;;;;;;5035853;28;20550;-56
2022/08/04 11:32:55;;;;;;;9.35;3.78;;;;;;;;;;5063539;27;20227;-56
2022/08/04 11:35:27;;;;;;;4.10;3.13;;;;;;;;;;5093481;28;20203;-55
2022/08/04 11:38:01;;;;;;;6.18;3.20;;;;;;;;;;5071082;28;20279;-55
2022/08/04 11:40:42;;;;;;;3.67;3.03;;;;;;;;;;5090178;28;20180;-55
2022/08/04 11:43:12;;;;;;;4.65;3.78;;;;;;;;;;5088292;28;20187;-56
2022/08/04 11:45:41;;;;;;;6.10;3.42;;;;;;;;;;5090525;28;20242;-57
2022/08/04 11:48:12;;;;;;;7.30;4.05;;;;;;;;;;5060989;28;20180;-58
2022/08/04 11:50:42;;;;;;;5.28;3.42;;;;;;;;;;5066621;28;20647;-55
2022/08/04 11:53:11;;;;;;;6.65;4.00;;;;;;;;;;5074288;28;20179;-58
2022/08/04 11:55:38;;;;;;;6.63;3.78;;;;;;;;;;5054286;28;20187;-55
2022/08/04 11:58:05;;;;;;;10.10;6.78;;;;;;;;;;5058810;28;20179;-57
2022/08/04 12:00:31;;;;;;;6.15;3.17;;;;;;;;;;5070012;28;20173;-57
2022/08/04 12:03:06;;;;;;;6.03;3.30;;;;;;;;;;5079125;28;20580;-58
2022/08/04 12:05:33;;;;;;;4.28;3.30;;;;;;;;;;5099450;28;20821;-57
2022/08/04 12:08:02;;;;;;;5.43;3.35;;;;;;;;;;5059786;28;20320;-58
2022/08/04 12:10:41;;;;;;;5.97;4.18;;;;;;;;;;5080180;28;20252;-59
2022/08/04 12:13:16;;;;;;;6.75;4.22;;;;;;;;;;5089128;28;20260;-60
2022/08/04 12:15:49;;;;;;;9.25;3.53;;;;;;;;;;5092988;28;20216;-57
2022/08/04 12:18:19;;;;;;;9.60;3.67;;;;;;;;;;5071080;28;20223;-58
2022/08/04 12:20:54;;;;;;;8.05;4.03;;;;;;;;;;5073700;28;20663;-57
2022/08/04 12:23:24;;;;;;;7.22;6.70;;;;;;;;;;5082746;28;20521;-58
2022/08/04 12:25:52;;;;;;;7.15;4.30;;;;;;;;;;5074573;28;20644;-57
2022/08/04 12:28:26;;;;;;;4.40;3.90;;;;;;;;;;5074486;28;20834;-58
2022/08/04 12:30:55;;;;;;;8.52;3.75;;;;;;;;;;5091032;28;20172;-57
2022/08/04 12:33:24;;;;;;;4.00;3.67;;;;;;;;;;5082195;28;20219;-57
2022/08/04 12:36:13;;;;;;;6.90;4.32;;;;;;;;;;5086391;28;20184;-56
2022/08/04 12:38:46;;;;;;;6.47;4.80;;;;;;;;;;5064793;28;20260;-58
2022/08/04 12:41:14;;;;;;;11.38;4.70;;;;;;;;;;5080067;28;20181;-59
2022/08/04 12:43:46;;;;;;;6.35;4.68;;;;;;;;;;5080766;28;20184;-56
2022/08/04 12:46:18;;;;;;;13.30;5.10;;;;;;;;;;5069940;28;20203;-56
2022/08/04 12:48:45;;;;;;;7.30;4.82;;;;;;;;;;5072048;28;20590;-58
2022/08/04 12:51:12;;;;;;;5.20;3.97;;;;;;;;;;5082024;28;20183;-56
2022/08/04 12:53:42;;;;;;;9.30;4.57;;;;;;;;;;5081302;28;20169;-58
2022/08/04 12:56:15;;;;;;;5.13;4.63;;;;;;;;;;5087557;28;20176;-57
2022/08/04 12:58:44;;;;;;;11.25;5.13;;;;;;;;;;5086764;28;20188;-58
2022/08/04 13:01:12;;;;;;;6.70;4.85;;;;;;;;;;5086159;28;20589;-56
2022/08/04 13:03:42;;;;;;;8.98;5.13;;;;;;;;;;5075651;28;20542;-58
2022/08/04 13:06:10;;;;;;;8.25;4.72;;;;;;;;;;5087725;28;20230;-58
2022/08/04 13:08:38;;;;;;;7.78;4.95;;;;;;;;;;5081152;28;20222;-58
2022/08/04 13:11:04;;;;;;;6.45;4.85;;;;;;;;;;5059571;28;20398;-60
2022/08/04 13:13:34;;;;;;;8.68;6.00;;;;;;;;;;5080748;28;20176;-57
2022/08/04 13:16:01;;;;;;;7.82;4.72;;;;;;;;;;5070984;28;20256;-58
2022/08/04 13:18:29;;;;;;;7.55;4.68;;;;;;;;;;5073558;28;20183;-57
2022/08/04 13:20:56;;;;;;;6.15;4.95;;;;;;;;;;5059614;28;20196;-56
2022/08/04 13:23:25;;;;;;;7.05;5.47;;;;;;;;;;5081478;28;20552;-57
2022/08/04 13:25:53;;;;;;;14.65;5.28;;;;;;;;;;5064811;28;20395;-54
2022/08/04 13:28:23;;;;;;;8.80;5.68;;;;;;;;;;5081418;28;20183;-51
2022/08/04 13:30:54;;;;;;;6.82;4.45;;;;;;;;;;5063920;28;20188;-53
2022/08/04 13:33:20;;;;;;;9.68;5.75;;;;;;;;;;5074623;28;20318;-54
2022/08/04 13:35:47;;;;;;;8.50;4.50;;;;;;;;;;5079884;28;20979;-53
2022/08/04 13:38:14;;;;;;;4.50;3.88;;;;;;;;;;5086332;28;20214;-54
2022/08/04 13:40:41;;;;;;;7.78;3.97;;;;;;;;;;5069860;28;20184;-52
2022/08/04 13:43:08;;;;;;;5.72;4.25;;;;;;;;;;5075187;28;20184;-55
2022/08/04 13:45:35;;;;;;;5.50;3.88;;;;;;;;;;5069344;28;20199;-55
2022/08/04 13:48:02;;;;;;;4.47;3.40;;;;;;;;;;5076089;28;20752;-55
2022/08/04 13:50:29;;;;;;;9.75;6.63;;;;;;;;;;5061753;28;20704;-53
2022/08/04 13:52:56;;;;;;;6.32;5.72;;;;;;;;;;5082591;28;20176;-54
2022/08/04 13:55:27;;;;;;;6.67;4.20;;;;;;;;;;5068092;28;20875;-52
2022/08/04 13:58:02;;;;;;;4.95;4.50;;;;;;;;;;5085032;28;20333;-53
2022/08/04 14:00:48;;;;;;;5.13;4.65;;;;;;;;;;5082283;28;20248;-53
2022/08/04 14:03:23;;;;;;;7.75;7.03;;;;;;;;;;5060894;28;20674;-51
2022/08/04 14:06:07;;;;;;;4.60;3.72;;;;;;;;;;5074184;28;20195;-52
2022/08/04 14:08:36;;;;;;;5.43;4.93;;;;;;;;;;5076871;28;20669;-51
2022/08/04 14:11:02;;;;;;;4.50;4.07;;;;;;;;;;5083073;28;20643;-51
2022/08/04 14:13:30;;;;;;;6.68;3.60;;;;;;;;;;5074430;28;20184;-51
2022/08/04 14:15:56;;;;;;;4.35;3.60;;;;;;;;;;5081359;28;20727;-51
2022/08/04 14:18:23;;;;;;;4.28;3.97;;;;;;;;;;5082817;28;20176;-51
2022/08/04 14:21:18;;;;;;;3.92;3.63;;;;;;;;;;5084911;28;20196;-52
2022/08/04 14:23:49;;;;;;;4.07;3.53;;;;;;;;;;5050927;28;20203;-51
2022/08/04 14:26:35;;;;;;;5.32;3.92;;;;;;;;;;5088175;28;20550;-55
2022/08/04 14:29:15;;;;;;;7.07;3.72;;;;;;;;;;5064775;28;20176;-55
2022/08/04 14:31:41;;;;;;;4.40;3.55;;;;;;;;;;5062646;28;20923;-55
2022/08/04 14:34:08;;;;;;;4.78;4.20;;;;;;;;;;5085211;27;21131;-55
2022/08/04 14:36:53;;;;;;;5.93;3.80;;;;;;;;;;5087688;28;20188;-54
2022/08/04 14:39:35;;;;;;;5.07;3.63;;;;;;;;;;5086829;28;20172;-54
2022/08/04 14:42:02;;;;;;;5.82;4.10;;;;;;;;;;5089995;28;20180;-54
2022/08/04 14:44:28;;;;;;;6.97;3.92;;;;;;;;;;5056020;28;20180;-54
2022/08/04 14:46:55;;;;;;;5.20;4.80;;;;;;;;;;5067125;28;20223;-53
2022/08/04 14:49:22;;;;;;;5.30;4.35;;;;;;;;;;5095581;28;20179;-54
2022/08/04 14:51:51;;;;;;;5.03;3.88;;;;;;;;;;5072755;28;20187;-54
2022/08/04 14:54:25;;;;;;;8.35;4.50;;;;;;;;;;5091353;28;20180;-53
2022/08/04 14:56:53;;;;;;;6.78;3.70;;;;;;;;;;5066138;28;20271;-54
2022/08/04 14:59:19;;;;;;;9.50;4.30;;;;;;;;;;5084651;28;20535;-55
2022/08/04 15:01:45;;;;;;;5.22;4.82;;;;;;;;;;5075010;28;20197;-53
2022/08/04 15:04:12;;;;;;;5.75;3.60;;;;;;;;;;5075889;28;20175;-54
2022/08/04 15:06:38;;;;;;;5.35;4.95;;;;;;;;;;5091115;28;20691;-54
2022/08/04 15:09:06;;;;;;;9.80;8.90;;;;;;;;;;5077129;28;20205;-54
2022/08/04 15:11:32;;;;;;;6.25;5.03;;;;;;;;;;5078260;28;20697;-54
2022/08/04 15:13:58;;;;;;;5.03;3.90;;;;;;;;;;5088897;28;20617;-55
2022/08/04 15:16:25;;;;;;;6.65;4.60;;;;;;;;;;5090919;28;20965;-54